createdAt,value
2022-11-05T00:01:21.121Z,10.78
2022-11-05T00:04:08.880Z,10.80
2022-11-05T00:06:57.161Z,10.78
2022-11-05T00:09:32.815Z,10.72
2022-11-05T00:12:30.459Z,10.70
2022-11-05T00:15:17.798Z,10.78
2022-11-05T00:17:46.591Z,10.80
2022-11-05T00:20:15.375Z,10.80
2022-11-05T00:23:02.832Z,10.80
2022-11-05T00:25:31.589Z,10.80
2022-11-05T00:28:03.528Z,10.80
2022-11-05T00:30:32.242Z,10.80
2022-11-05T00:33:05.365Z,10.80
2022-11-05T00:35:33.813Z,10.70
2022-11-05T00:38:02.498Z,10.70
2022-11-05T00:40:31.083Z,10.70
2022-11-05T00:43:18.613Z,10.70
2022-11-05T00:45:47.198Z,10.70
2022-11-05T00:48:34.418Z,10.70
2022-11-05T00:51:03.104Z,10.70
2022-11-05T00:53:32.206Z,10.70
2022-11-05T00:56:01.406Z,10.72
2022-11-05T00:58:29.883Z,10.80
2022-11-05T01:01:01.002Z,10.80
2022-11-05T01:03:34.203Z,10.80
2022-11-05T01:06:13.513Z,10.70
2022-11-05T01:08:45.271Z,10.72
2022-11-05T01:11:37.455Z,10.72
2022-11-05T01:14:13.058Z,10.72
2022-11-05T01:16:42.510Z,10.70
2022-11-05T01:19:12.319Z,10.70
2022-11-05T01:21:40.901Z,10.72
2022-11-05T01:24:11.120Z,10.78
2022-11-05T01:26:39.816Z,10.74
2022-11-05T01:29:11.120Z,10.70
2022-11-05T01:31:39.643Z,10.72
2022-11-05T01:34:08.228Z,10.72
2022-11-05T01:36:36.812Z,10.78
2022-11-05T01:39:05.396Z,10.76
2022-11-05T01:41:34.083Z,10.72
2022-11-05T01:44:03.591Z,10.70
2022-11-05T01:46:38.692Z,10.70
2022-11-05T01:49:20.837Z,10.70
2022-11-05T01:51:51.505Z,10.70
2022-11-05T01:54:27.315Z,10.70
2022-11-05T01:57:04.157Z,10.70
2022-11-05T01:59:40.535Z,10.70
2022-11-05T02:02:09.684Z,10.70
2022-11-05T02:05:03.640Z,10.70
2022-11-05T02:07:33.923Z,10.70
2022-11-05T02:10:15.019Z,10.70
2022-11-05T02:12:48.437Z,10.70
2022-11-05T02:15:43.353Z,10.70
2022-11-05T02:18:41.416Z,10.70
2022-11-05T02:21:31.914Z,10.70
2022-11-05T02:24:41.153Z,10.70
2022-11-05T02:27:48.554Z,10.70
2022-11-05T02:30:52.570Z,10.70
2022-11-05T02:33:57.203Z,10.70
2022-11-05T02:36:52.912Z,10.70
2022-11-05T02:40:01.544Z,10.70
2022-11-05T02:42:47.459Z,10.70
2022-11-05T02:45:37.514Z,10.70
2022-11-05T02:48:50.745Z,10.70
2022-11-05T02:51:40.834Z,10.70
2022-11-05T02:54:29.491Z,10.70
2022-11-05T02:56:59.507Z,10.64
2022-11-05T02:59:27.993Z,10.62
2022-11-05T03:01:58.598Z,10.64
2022-11-05T03:04:27.820Z,10.60
2022-11-05T03:07:34.191Z,10.66
2022-11-05T03:10:56.947Z,10.62
2022-11-05T03:13:51.440Z,10.64
2022-11-05T03:16:32.924Z,10.68
2022-11-05T03:19:07.042Z,10.64
2022-11-05T03:21:58.001Z,10.60
2022-11-05T03:24:36.125Z,10.60
2022-11-05T03:27:10.519Z,10.60
2022-11-05T03:29:44.745Z,10.60
2022-11-05T03:32:17.018Z,10.60
2022-11-05T03:34:57.222Z,10.60
2022-11-05T03:37:29.162Z,10.60
2022-11-05T03:40:01.924Z,10.60
2022-11-05T03:42:35.894Z,10.60
2022-11-05T03:45:16.032Z,10.58
2022-11-05T03:47:48.312Z,10.54
2022-11-05T03:50:41.290Z,10.58
2022-11-05T03:53:23.771Z,10.50
2022-11-05T03:56:02.208Z,10.50
2022-11-05T03:58:31.896Z,10.50
2022-11-05T04:01:03.816Z,10.50
2022-11-05T04:03:36.847Z,10.50
2022-11-05T04:06:26.529Z,10.50
2022-11-05T04:09:13.750Z,10.50
2022-11-05T04:12:00.906Z,10.46
2022-11-05T04:14:31.089Z,10.40
2022-11-05T04:17:11.757Z,10.42
2022-11-05T04:20:03.689Z,10.40
2022-11-05T04:22:54.392Z,10.40
2022-11-05T04:25:23.388Z,10.40
2022-11-05T04:27:51.971Z,10.40
2022-11-05T04:30:20.995Z,10.40
2022-11-05T04:33:11.361Z,10.40
2022-11-05T04:35:49.666Z,10.40
2022-11-05T04:38:20.537Z,10.40
2022-11-05T04:40:49.300Z,10.40
2022-11-05T04:43:19.974Z,10.40
2022-11-05T04:45:48.627Z,10.40
2022-11-05T04:48:17.212Z,10.40
2022-11-05T04:50:45.788Z,10.40
2022-11-05T04:53:14.501Z,10.40
2022-11-05T04:55:43.367Z,10.40
2022-11-05T04:58:12.052Z,10.40
2022-11-05T05:00:41.030Z,10.40
2022-11-05T05:03:10.303Z,10.40
2022-11-05T05:05:39.046Z,10.34
2022-11-05T05:08:07.526Z,10.30
2022-11-05T05:10:36.104Z,10.30
2022-11-05T05:13:04.687Z,10.30
2022-11-05T05:15:33.374Z,10.30
2022-11-05T05:18:01.957Z,10.30
2022-11-05T05:20:50.204Z,10.30
2022-11-05T05:23:19.093Z,10.30
2022-11-05T05:25:47.576Z,10.30
2022-11-05T05:28:16.173Z,10.30
2022-11-05T05:30:44.853Z,10.30
2022-11-05T05:33:14.381Z,10.30
2022-11-05T05:35:43.045Z,10.30
2022-11-05T05:38:11.626Z,10.30
2022-11-05T05:40:40.214Z,10.30
2022-11-05T05:43:08.931Z,10.30
2022-11-05T05:45:37.788Z,10.30
2022-11-05T05:48:06.638Z,10.30
2022-11-05T05:50:35.490Z,10.24
2022-11-05T05:53:10.091Z,10.20
2022-11-05T05:55:38.994Z,10.20
2022-11-05T05:58:07.785Z,10.20
2022-11-05T06:00:36.875Z,10.28
2022-11-05T06:03:06.552Z,10.30
2022-11-05T06:05:35.199Z,10.30
2022-11-05T06:08:03.881Z,10.30
2022-11-05T06:10:32.774Z,10.30
2022-11-05T06:13:01.432Z,10.30
2022-11-05T06:15:35.489Z,10.30
2022-11-05T06:18:04.747Z,10.30
2022-11-05T06:20:33.227Z,10.30
2022-11-05T06:23:02.631Z,10.30
2022-11-05T06:25:31.214Z,10.30
2022-11-05T06:28:00.313Z,10.30
2022-11-05T06:30:28.999Z,10.30
2022-11-05T06:33:02.497Z,10.30
2022-11-05T06:35:31.389Z,10.30
2022-11-05T06:38:02.633Z,10.38
2022-11-05T06:40:31.221Z,10.38
2022-11-05T06:42:59.803Z,10.40
2022-11-05T06:45:28.388Z,10.40
2022-11-05T06:47:58.743Z,10.40
2022-11-05T06:50:28.798Z,10.40
2022-11-05T06:53:03.943Z,10.40
2022-11-05T06:55:33.070Z,10.40
2022-11-05T06:58:01.769Z,10.48
2022-11-05T07:00:30.834Z,10.50
2022-11-05T07:03:12.187Z,10.50
2022-11-05T07:05:48.214Z,10.50
2022-11-05T07:08:16.779Z,10.40
2022-11-05T07:10:45.360Z,10.40
2022-11-05T07:13:14.248Z,10.40
2022-11-05T07:15:43.452Z,10.40
2022-11-05T07:18:12.037Z,10.40
2022-11-05T07:20:40.723Z,10.40
2022-11-05T07:23:14.870Z,10.40
2022-11-05T07:25:45.137Z,10.30
2022-11-05T07:28:14.776Z,10.30
2022-11-05T07:30:43.459Z,10.30
2022-11-05T07:33:12.627Z,10.30
2022-11-05T07:35:41.548Z,10.36
2022-11-05T07:38:11.068Z,10.34
2022-11-05T07:40:39.569Z,10.40
2022-11-05T07:43:08.342Z,10.40
2022-11-05T07:45:37.320Z,10.40
2022-11-05T07:48:06.718Z,10.40
2022-11-05T07:50:37.974Z,10.40
2022-11-05T07:53:13.869Z,10.50
2022-11-05T07:55:44.179Z,10.50
2022-11-05T07:58:13.656Z,10.50
2022-11-05T08:00:42.818Z,10.50
2022-11-05T08:03:17.369Z,10.50
2022-11-05T08:05:48.431Z,10.60
2022-11-05T08:08:19.381Z,10.60
2022-11-05T08:10:48.356Z,10.70
2022-11-05T08:13:17.556Z,10.80
2022-11-05T08:15:46.036Z,10.90
2022-11-05T08:18:17.944Z,11.00
2022-11-05T08:20:48.089Z,11.10
2022-11-05T08:23:16.611Z,11.20
2022-11-05T08:25:45.290Z,11.30
2022-11-05T08:28:14.384Z,11.30
2022-11-05T08:30:43.174Z,11.38
2022-11-05T08:33:13.573Z,11.40
2022-11-05T08:35:42.909Z,11.50
2022-11-05T08:38:14.480Z,11.50
2022-11-05T08:40:45.360Z,11.50
2022-11-05T08:43:15.005Z,11.50
2022-11-05T08:45:43.897Z,11.60
2022-11-05T08:48:15.808Z,11.70
2022-11-05T08:50:47.030Z,11.80
2022-11-05T08:53:17.708Z,11.84
2022-11-05T08:55:50.316Z,11.90
2022-11-05T08:58:20.437Z,12.08
2022-11-05T09:00:50.551Z,12.20
2022-11-05T09:03:19.552Z,12.30
2022-11-05T09:05:48.444Z,12.34
2022-11-05T09:08:19.488Z,12.40
2022-11-05T09:10:50.101Z,12.40
2022-11-05T09:13:20.136Z,12.40
2022-11-05T09:15:50.700Z,12.40
2022-11-05T09:18:20.990Z,12.50
2022-11-05T09:20:49.781Z,12.60
2022-11-05T09:23:18.882Z,12.84
2022-11-05T09:25:47.564Z,13.40
2022-11-05T09:28:20.517Z,13.96
2022-11-05T09:30:52.380Z,14.48
2022-11-05T09:33:24.585Z,14.86
2022-11-05T09:35:53.988Z,15.06
2022-11-05T09:38:22.470Z,15.00
2022-11-05T09:41:03.466Z,14.80
2022-11-05T09:43:39.295Z,14.70
2022-11-05T09:46:26.946Z,14.70
2022-11-05T09:49:04.531Z,14.80
2022-11-05T09:51:34.684Z,14.80
2022-11-05T09:54:05.786Z,14.90
2022-11-05T09:56:40.591Z,14.90
2022-11-05T09:59:31.014Z,14.80
2022-11-05T10:02:22.703Z,14.70
2022-11-05T10:05:02.509Z,14.80
2022-11-05T10:07:47.871Z,14.96
2022-11-05T10:10:42.071Z,15.10
2022-11-05T10:13:33.599Z,15.36
2022-11-05T10:16:29.296Z,15.60
2022-11-05T10:19:00.132Z,15.98
2022-11-05T10:21:59.427Z,16.20
2022-11-05T10:24:21.122Z,16.30
2022-11-05T10:26:54.865Z,16.20
2022-11-05T10:29:35.482Z,16.20
2022-11-05T10:32:07.504Z,16.20
2022-11-05T10:34:39.461Z,16.30
2022-11-05T10:37:09.099Z,16.30
2022-11-05T10:39:37.859Z,16.20
2022-11-05T10:42:21.393Z,16.20
2022-11-05T10:45:02.470Z,16.20
2022-11-05T10:48:43.952Z,16.38
2022-11-05T10:51:13.473Z,16.30
2022-11-05T10:54:00.334Z,16.10
2022-11-05T10:56:37.645Z,16.00
2022-11-05T10:59:29.919Z,15.90
2022-11-05T11:02:21.239Z,15.88
2022-11-05T11:04:54.422Z,15.80
2022-11-05T11:07:26.134Z,15.74
2022-11-05T11:09:54.764Z,15.90
2022-11-05T11:12:40.917Z,15.80
2022-11-05T11:15:24.803Z,15.70
2022-11-05T11:17:55.540Z,15.80
2022-11-05T11:20:31.612Z,15.80
2022-11-05T11:23:16.015Z,15.90
2022-11-05T11:26:01.338Z,15.90
2022-11-05T11:28:44.050Z,15.86
2022-11-05T11:31:25.178Z,15.80
2022-11-05T11:34:10.611Z,15.80
2022-11-05T11:36:47.183Z,15.90
2022-11-05T11:39:24.571Z,15.90
2022-11-05T11:41:57.419Z,15.90
2022-11-05T11:44:31.283Z,15.90
2022-11-05T11:47:10.085Z,15.80
2022-11-05T11:49:44.710Z,15.72
2022-11-05T11:52:24.361Z,15.52
2022-11-05T11:55:06.974Z,15.36
2022-11-05T11:58:07.199Z,15.42
2022-11-05T12:00:45.568Z,15.50
2022-11-05T12:03:51.167Z,15.30
2022-11-05T12:06:34.493Z,15.20
2022-11-05T12:09:11.987Z,15.00
2022-11-05T12:11:53.171Z,14.80
2022-11-05T12:15:04.277Z,14.88
2022-11-05T12:17:52.602Z,15.10
2022-11-05T12:20:58.595Z,15.10
2022-11-05T12:24:04.926Z,15.10
2022-11-05T12:27:17.441Z,14.82
2022-11-05T12:30:19.822Z,14.80
2022-11-05T12:33:16.358Z,14.82
2022-11-05T12:36:14.944Z,14.90
2022-11-05T12:38:52.641Z,14.90
2022-11-05T12:41:53.072Z,14.90
2022-11-05T12:44:48.896Z,14.90
2022-11-05T12:47:40.213Z,14.94
2022-11-05T12:50:21.500Z,14.70
2022-11-05T12:53:24.281Z,14.50
2022-11-05T12:55:53.585Z,14.32
2022-11-05T12:58:31.485Z,14.30
2022-11-05T13:01:24.975Z,14.30
2022-11-05T13:04:09.012Z,14.12
2022-11-05T13:06:42.044Z,14.10
2022-11-05T13:09:41.907Z,13.90
2022-11-05T13:12:17.211Z,13.82
2022-11-05T13:14:55.335Z,13.80
2022-11-05T13:17:29.579Z,13.70
2022-11-05T13:19:57.954Z,13.70
2022-11-05T13:22:35.344Z,13.70
2022-11-05T13:25:25.593Z,13.70
2022-11-05T13:27:58.425Z,13.70
2022-11-05T13:30:41.956Z,13.60
2022-11-05T13:33:32.252Z,13.50
2022-11-05T13:36:28.485Z,13.46
2022-11-05T13:39:20.928Z,13.40
2022-11-05T13:42:24.942Z,13.50
2022-11-05T13:45:18.514Z,13.60
2022-11-05T13:48:05.734Z,13.60
2022-11-05T13:51:07.495Z,13.70
2022-11-05T13:54:04.343Z,13.80
2022-11-05T13:57:16.654Z,13.88
2022-11-05T14:00:04.060Z,13.90
2022-11-05T14:03:15.264Z,14.00
2022-11-05T14:05:49.768Z,14.10
2022-11-05T14:08:23.867Z,14.14
2022-11-05T14:11:19.112Z,14.10
2022-11-05T14:13:55.580Z,14.10
2022-11-05T14:16:52.323Z,14.10
2022-11-05T14:19:20.811Z,14.10
2022-11-05T14:21:58.709Z,14.00
2022-11-05T14:24:44.604Z,14.00
2022-11-05T14:27:33.467Z,13.90
2022-11-05T14:30:22.727Z,13.80
2022-11-05T14:32:53.365Z,13.80
2022-11-05T14:35:38.946Z,13.62
2022-11-05T14:38:24.014Z,13.60
2022-11-05T14:41:01.678Z,13.44
2022-11-05T14:43:34.681Z,13.30
2022-11-05T14:46:06.421Z,13.30
2022-11-05T14:48:54.153Z,13.20
2022-11-05T14:51:46.086Z,13.20
2022-11-05T14:54:37.479Z,13.20
2022-11-05T14:57:06.135Z,13.10
2022-11-05T14:59:58.060Z,13.10
2022-11-05T15:02:38.536Z,13.00
2022-11-05T15:05:35.172Z,12.92
2022-11-05T15:08:36.621Z,12.80
2022-11-05T15:11:36.028Z,12.70
2022-11-05T15:14:08.812Z,12.60
2022-11-05T15:16:49.731Z,12.52
2022-11-05T15:19:37.373Z,12.50
2022-11-05T15:22:17.022Z,12.40
2022-11-05T15:24:45.543Z,12.30
2022-11-05T15:27:42.411Z,12.20
2022-11-05T15:30:23.199Z,12.20
2022-11-05T15:32:52.776Z,12.06
2022-11-05T15:35:30.177Z,11.90
2022-11-05T15:38:02.019Z,11.72
2022-11-05T15:40:34.257Z,11.60
2022-11-05T15:43:29.438Z,11.50
2022-11-05T15:46:14.676Z,11.40
2022-11-05T15:48:50.220Z,11.30
2022-11-05T15:51:21.340Z,11.20
2022-11-05T15:54:16.106Z,11.10
2022-11-05T15:56:53.354Z,11.10
2022-11-05T15:59:25.007Z,10.90
2022-11-05T16:02:33.319Z,10.80
2022-11-05T16:05:09.693Z,10.68
2022-11-05T16:07:44.099Z,10.50
2022-11-05T16:10:28.673Z,10.42
2022-11-05T16:12:57.567Z,10.34
2022-11-05T16:15:32.599Z,10.30
2022-11-05T16:18:01.498Z,10.20
2022-11-05T16:20:34.372Z,10.10
2022-11-05T16:23:23.134Z,10.00
2022-11-05T16:25:52.383Z,9.92
2022-11-05T16:28:30.341Z,9.84
2022-11-05T16:31:03.902Z,9.74
2022-11-05T16:33:51.019Z,9.62
2022-11-05T16:36:21.165Z,9.50
2022-11-05T16:38:49.813Z,9.40
2022-11-05T16:41:21.310Z,9.38
2022-11-05T16:44:00.410Z,9.30
2022-11-05T16:46:30.692Z,9.30
2022-11-05T16:48:59.155Z,9.22
2022-11-05T16:51:28.700Z,9.20
2022-11-05T16:53:57.383Z,9.20
2022-11-05T16:56:26.070Z,9.10
2022-11-05T16:58:54.952Z,9.10
2022-11-05T17:01:24.793Z,9.02
2022-11-05T17:03:54.042Z,9.00
2022-11-05T17:06:23.609Z,8.96
2022-11-05T17:08:52.130Z,8.90
2022-11-05T17:11:21.841Z,8.90
2022-11-05T17:13:51.357Z,8.80
2022-11-05T17:16:19.940Z,8.70
2022-11-05T17:18:48.727Z,8.68
2022-11-05T17:21:17.447Z,8.60
2022-11-05T17:23:46.197Z,8.60
2022-11-05T17:26:15.189Z,8.50
2022-11-05T17:28:43.671Z,8.50
2022-11-05T17:31:14.448Z,8.40
2022-11-05T17:33:43.304Z,8.40
2022-11-05T17:36:16.373Z,8.30
2022-11-05T17:38:44.977Z,8.30
2022-11-05T17:41:17.512Z,8.20
2022-11-05T17:43:48.076Z,8.20
2022-11-05T17:46:17.903Z,8.20
2022-11-05T17:48:47.718Z,8.10
2022-11-05T17:51:19.226Z,8.10
2022-11-05T17:53:52.117Z,8.00
2022-11-05T17:56:32.454Z,8.00
2022-11-05T17:59:04.171Z,7.90
2022-11-05T18:01:36.221Z,7.84
2022-11-05T18:04:09.026Z,7.80
2022-11-05T18:06:40.186Z,7.80
2022-11-05T18:09:11.102Z,7.80
2022-11-05T18:11:41.355Z,7.80
2022-11-05T18:14:11.340Z,7.78
2022-11-05T18:16:39.775Z,7.72
2022-11-05T18:19:10.759Z,7.70
2022-11-05T18:21:39.346Z,7.70
2022-11-05T18:24:08.880Z,7.60
2022-11-05T18:26:38.463Z,7.60
2022-11-05T18:29:07.247Z,7.50
2022-11-05T18:31:35.933Z,7.40
2022-11-05T18:34:05.350Z,7.30
2022-11-05T18:36:34.713Z,7.30
2022-11-05T18:39:06.139Z,7.30
2022-11-05T18:41:35.188Z,7.30
2022-11-05T18:44:05.848Z,7.24
2022-11-05T18:46:56.952Z,7.20
2022-11-05T18:49:24.804Z,7.20
2022-11-05T18:51:54.717Z,7.20
2022-11-05T18:54:23.401Z,7.12
2022-11-05T18:56:52.090Z,7.10
2022-11-05T18:59:36.772Z,7.10
2022-11-05T19:02:11.370Z,7.10
2022-11-05T19:04:50.593Z,7.06
2022-11-05T19:07:29.849Z,7.00
2022-11-05T19:09:59.050Z,7.00
2022-11-05T19:12:27.735Z,6.90
2022-11-05T19:15:01.950Z,6.80
2022-11-05T19:17:33.737Z,6.78
2022-11-05T19:20:03.013Z,6.70
2022-11-05T19:22:32.443Z,6.70
2022-11-05T19:25:01.613Z,6.70
2022-11-05T19:27:30.706Z,6.70
2022-11-05T19:29:59.394Z,6.70
2022-11-05T19:32:28.695Z,6.68
2022-11-05T19:34:57.892Z,6.60
2022-11-05T19:37:26.990Z,6.60
2022-11-05T19:39:55.572Z,6.60
2022-11-05T19:42:24.567Z,6.60
2022-11-05T19:44:53.868Z,6.50
2022-11-05T19:47:22.973Z,6.46
2022-11-05T19:49:51.549Z,6.40
2022-11-05T19:52:20.443Z,6.40
2022-11-05T19:54:49.345Z,6.30
2022-11-05T19:57:18.839Z,6.30
2022-11-05T19:59:47.935Z,6.20
2022-11-05T20:02:17.234Z,6.20
2022-11-05T20:04:46.436Z,6.10
2022-11-05T20:07:15.532Z,6.10
2022-11-05T20:09:44.120Z,6.10
2022-11-05T20:12:13.007Z,6.10
2022-11-05T20:14:42.413Z,6.10
2022-11-05T20:17:11.919Z,6.10
2022-11-05T20:19:40.606Z,6.10
2022-11-05T20:22:09.297Z,6.10
2022-11-05T20:24:39.206Z,6.10
2022-11-05T20:27:08.590Z,6.10
2022-11-05T20:29:37.809Z,6.02
2022-11-05T20:32:07.213Z,6.00
2022-11-05T20:34:36.107Z,6.00
2022-11-05T20:37:04.893Z,6.00
2022-11-05T20:39:34.207Z,6.00
2022-11-05T20:42:03.202Z,6.00
2022-11-05T20:44:31.875Z,6.00
2022-11-05T20:47:00.561Z,5.90
2022-11-05T20:49:29.666Z,5.88
2022-11-05T20:51:58.960Z,5.80
2022-11-05T20:54:27.603Z,5.80
2022-11-05T20:56:56.436Z,5.70
2022-11-05T20:59:25.670Z,5.70
2022-11-05T21:01:54.427Z,5.70
2022-11-05T21:04:23.521Z,5.70
2022-11-05T21:06:53.640Z,5.70
2022-11-05T21:09:22.241Z,5.60
2022-11-05T21:12:09.547Z,5.50
2022-11-05T21:14:43.461Z,5.50
2022-11-05T21:17:13.614Z,5.40
2022-11-05T21:19:42.162Z,5.40
2022-11-05T21:22:15.767Z,5.40
2022-11-05T21:24:44.456Z,5.40
2022-11-05T21:27:13.242Z,5.40
2022-11-05T21:29:42.033Z,5.40
2022-11-05T21:32:10.727Z,5.40
2022-11-05T21:34:39.711Z,5.40
2022-11-05T21:37:08.295Z,5.40
2022-11-05T21:39:36.883Z,5.40
2022-11-05T21:42:05.568Z,5.30
2022-11-05T21:44:34.256Z,5.30
2022-11-05T21:47:04.784Z,5.30
2022-11-05T21:49:35.017Z,5.30
2022-11-05T21:52:22.741Z,5.26
2022-11-05T21:55:10.165Z,5.24
2022-11-05T21:57:58.411Z,5.20
2022-11-05T22:00:27.200Z,5.20
2022-11-05T22:02:56.100Z,5.10
2022-11-05T22:05:24.779Z,5.08
2022-11-05T22:07:53.567Z,5.02
2022-11-05T22:10:22.262Z,5.00
2022-11-05T22:12:50.940Z,5.00
2022-11-05T22:15:19.934Z,5.00
2022-11-05T22:17:51.594Z,5.00
2022-11-05T22:20:20.383Z,5.00
2022-11-05T22:22:48.965Z,5.00
2022-11-05T22:25:18.266Z,5.00
2022-11-05T22:27:46.985Z,5.00
2022-11-05T22:30:16.459Z,4.90
2022-11-05T22:32:46.405Z,4.90
2022-11-05T22:35:14.858Z,4.84
2022-11-05T22:37:43.445Z,4.80
2022-11-05T22:40:12.333Z,4.80
2022-11-05T22:42:40.886Z,4.80
2022-11-05T22:45:10.483Z,4.76
2022-11-05T22:47:42.285Z,4.76
2022-11-05T22:50:11.096Z,4.70
2022-11-05T22:52:39.760Z,4.70
2022-11-05T22:55:09.223Z,4.70
2022-11-05T22:57:37.992Z,4.66
2022-11-05T23:00:17.422Z,4.64
2022-11-05T23:02:47.543Z,4.70
2022-11-05T23:05:16.506Z,4.60
2022-11-05T23:08:03.992Z,4.60
2022-11-05T23:10:51.461Z,4.50
2022-11-05T23:13:20.047Z,4.50
2022-11-05T23:16:08.188Z,4.56
2022-11-05T23:18:56.024Z,4.50
2022-11-05T23:21:43.656Z,4.50
2022-11-05T23:24:13.683Z,4.50
2022-11-05T23:26:51.562Z,4.50
2022-11-05T23:29:24.638Z,4.46
2022-11-05T23:32:12.707Z,4.40
2022-11-05T23:34:41.292Z,4.32
2022-11-05T23:37:29.434Z,4.30
2022-11-05T23:39:58.434Z,4.30
2022-11-05T23:42:46.477Z,4.30
2022-11-05T23:45:34.141Z,4.40
2022-11-05T23:48:18.172Z,4.30
2022-11-05T23:51:05.680Z,4.30
2022-11-05T23:53:37.501Z,4.30
2022-11-05T23:56:12.982Z,4.26
2022-11-05T23:58:42.631Z,4.20
